createdAt,value
2023-01-10T00:00:55.849Z,91.61
2023-01-10T00:01:56.588Z,91.30
2023-01-10T00:02:55.966Z,91.40
2023-01-10T00:03:55.831Z,91.20
2023-01-10T00:04:55.877Z,91.30
2023-01-10T00:05:55.797Z,90.99
2023-01-10T00:06:55.824Z,91.09
2023-01-10T00:07:55.789Z,91.30
2023-01-10T00:08:55.775Z,90.89
2023-01-10T00:09:55.781Z,90.68
2023-01-10T00:10:56.593Z,90.58
2023-01-10T00:11:55.750Z,91.71
2023-01-10T00:12:55.748Z,91.30
2023-01-10T00:13:55.735Z,91.20
2023-01-10T00:14:55.769Z,90.78
2023-01-10T00:15:55.773Z,90.99
2023-01-10T00:16:55.707Z,90.99
2023-01-10T00:17:55.699Z,90.89
2023-01-10T00:18:55.702Z,90.78
2023-01-10T00:19:55.681Z,90.68
2023-01-10T00:20:56.600Z,90.16
2023-01-10T00:21:55.687Z,90.68
2023-01-10T00:22:55.660Z,89.95
2023-01-10T00:23:55.657Z,89.95
2023-01-10T00:24:55.655Z,90.68
2023-01-10T00:26:48.666Z,90.37
2023-01-10T00:27:48.678Z,90.47
2023-01-10T00:28:48.651Z,90.06
2023-01-10T00:29:49.750Z,90.47
2023-01-10T00:30:49.789Z,90.06
2023-01-10T00:31:49.719Z,90.58
2023-01-10T00:32:49.713Z,90.16
2023-01-10T00:33:49.705Z,90.37
2023-01-10T00:34:49.708Z,90.16
2023-01-10T00:35:49.707Z,90.47
2023-01-10T00:36:49.705Z,90.78
2023-01-10T00:37:49.682Z,90.99
2023-01-10T00:38:49.669Z,91.20
2023-01-10T00:39:50.649Z,91.30
2023-01-10T00:40:49.647Z,90.99
2023-01-10T00:41:49.633Z,90.83
2023-01-10T00:42:49.622Z,91.09
2023-01-10T00:43:49.631Z,91.30
2023-01-10T00:44:49.612Z,90.68
2023-01-10T00:45:49.617Z,90.68
2023-01-10T00:46:49.592Z,90.78
2023-01-10T00:47:49.584Z,90.78
2023-01-10T00:48:49.582Z,91.09
2023-01-10T00:49:49.573Z,90.68
2023-01-10T00:50:49.559Z,90.89
2023-01-10T00:51:49.559Z,91.40
2023-01-10T00:52:49.563Z,90.83
2023-01-10T00:53:49.544Z,90.41
2023-01-10T00:54:49.525Z,91.03
2023-01-10T00:55:49.618Z,91.24
2023-01-10T00:56:49.521Z,91.17
2023-01-10T00:57:49.518Z,91.75
2023-01-10T00:58:49.558Z,91.75
2023-01-10T00:59:49.546Z,91.75
2023-01-10T01:00:50.131Z,91.86
2023-01-10T01:01:49.660Z,91.75
2023-01-10T01:02:49.653Z,91.86
2023-01-10T01:03:50.111Z,91.86
2023-01-10T01:04:49.461Z,91.86
2023-01-10T01:05:49.437Z,91.65
2023-01-10T01:06:49.437Z,91.65
2023-01-10T01:07:49.638Z,91.96
2023-01-10T01:08:49.419Z,91.69
2023-01-10T01:09:49.413Z,91.86
2023-01-10T01:10:49.411Z,91.65
2023-01-10T01:11:49.432Z,91.24
2023-01-10T01:12:49.391Z,91.44
2023-01-10T01:13:49.382Z,91.34
2023-01-10T01:14:49.371Z,91.13
2023-01-10T01:15:49.439Z,91.13
2023-01-10T01:16:49.365Z,90.52
2023-01-10T01:17:49.349Z,90.00
2023-01-10T01:18:49.331Z,90.83
2023-01-10T01:19:49.349Z,89.79
2023-01-10T01:20:49.314Z,90.10
2023-01-10T01:21:49.316Z,90.10
2023-01-10T01:22:49.311Z,89.89
2023-01-10T01:23:49.289Z,90.62
2023-01-10T01:24:49.285Z,90.20
2023-01-10T01:25:49.271Z,90.62
2023-01-10T01:26:49.268Z,90.72
2023-01-10T01:27:49.276Z,90.83
2023-01-10T01:28:49.244Z,90.68
2023-01-10T01:29:50.180Z,90.31
2023-01-10T01:30:49.327Z,90.06
2023-01-10T01:31:49.244Z,90.16
2023-01-10T01:32:49.264Z,90.68
2023-01-10T01:33:49.209Z,90.99
2023-01-10T01:34:49.200Z,90.26
2023-01-10T01:35:49.191Z,89.65
2023-01-10T01:36:49.184Z,89.86
2023-01-10T01:37:49.226Z,90.37
2023-01-10T01:38:49.177Z,89.95
2023-01-10T01:39:50.113Z,90.31
2023-01-10T01:40:49.164Z,91.44
2023-01-10T01:41:49.133Z,91.13
2023-01-10T01:42:50.137Z,91.03
2023-01-10T01:43:49.141Z,91.24
2023-01-10T01:44:49.130Z,91.09
2023-01-10T01:45:49.123Z,91.40
2023-01-10T01:46:49.625Z,91.13
2023-01-10T01:47:49.112Z,91.09
2023-01-10T01:48:49.101Z,91.34
2023-01-10T01:49:49.100Z,91.75
2023-01-10T01:50:49.087Z,91.24
2023-01-10T01:51:49.077Z,91.75
2023-01-10T01:52:49.067Z,91.44
2023-01-10T01:53:49.074Z,91.34
2023-01-10T01:54:49.048Z,91.24
2023-01-10T01:55:49.053Z,91.80
2023-01-10T01:56:49.037Z,92.21
2023-01-10T01:57:49.034Z,91.90
2023-01-10T01:58:49.021Z,91.80
2023-01-10T01:59:49.013Z,92.32
2023-01-10T02:00:49.001Z,92.00
2023-01-10T02:01:49.019Z,92.00
2023-01-10T02:03:01.839Z,92.36
2023-01-10T02:03:51.043Z,92.11
2023-01-10T02:04:48.983Z,92.25
2023-01-10T02:05:48.969Z,92.63
2023-01-10T02:06:48.962Z,92.32
2023-01-10T02:07:48.938Z,92.21
2023-01-10T02:08:48.942Z,92.32
2023-01-10T02:09:48.941Z,92.36
2023-01-10T02:10:48.959Z,91.90
2023-01-10T02:11:49.558Z,91.69
2023-01-10T02:12:48.921Z,92.00
2023-01-10T02:13:48.894Z,92.00
2023-01-10T02:14:48.899Z,92.00
2023-01-10T02:15:48.920Z,91.69
2023-01-10T02:16:48.867Z,91.75
2023-01-10T02:17:48.864Z,92.00
2023-01-10T02:18:48.854Z,91.80
2023-01-10T02:19:48.843Z,91.49
2023-01-10T02:20:48.835Z,91.80
2023-01-10T02:21:48.825Z,91.80
2023-01-10T02:22:48.828Z,91.90
2023-01-10T02:23:48.816Z,92.52
2023-01-10T02:24:48.818Z,92.11
2023-01-10T02:25:48.805Z,91.90
2023-01-10T02:26:48.781Z,92.46
2023-01-10T02:27:48.813Z,92.15
2023-01-10T02:28:48.787Z,93.18
2023-01-10T02:29:48.780Z,93.02
2023-01-10T02:30:48.769Z,93.23
2023-01-10T02:31:48.756Z,93.43
2023-01-10T02:32:56.954Z,93.33
2023-01-10T02:33:50.748Z,93.74
2023-01-10T02:34:48.735Z,93.54
2023-01-10T02:35:48.722Z,93.33
2023-01-10T02:36:48.712Z,94.47
2023-01-10T02:37:48.706Z,94.06
2023-01-10T02:38:48.711Z,94.06
2023-01-10T02:39:48.693Z,94.10
2023-01-10T02:40:48.687Z,94.16
2023-01-10T02:41:48.679Z,93.99
2023-01-10T02:42:48.667Z,94.72
2023-01-10T02:43:48.651Z,94.31
2023-01-10T02:44:49.662Z,94.31
2023-01-10T02:45:48.662Z,94.31
2023-01-10T02:46:48.708Z,94.56
2023-01-10T02:47:48.621Z,95.28
2023-01-10T02:48:48.616Z,94.45
2023-01-10T02:49:48.612Z,94.24
2023-01-10T02:50:48.606Z,94.35
2023-01-10T02:51:48.594Z,94.35
2023-01-10T02:52:48.579Z,94.97
2023-01-10T02:53:48.571Z,94.97
2023-01-10T02:54:48.569Z,94.97
2023-01-10T02:55:48.567Z,95.70
2023-01-10T02:56:48.576Z,95.39
2023-01-10T02:57:48.549Z,95.07
2023-01-10T02:58:48.603Z,95.59
2023-01-10T02:59:48.532Z,94.97
2023-01-10T03:00:48.529Z,94.62
2023-01-10T03:01:48.557Z,94.66
2023-01-10T03:02:48.505Z,94.72
2023-01-10T03:03:48.492Z,94.04
2023-01-10T03:04:48.556Z,94.35
2023-01-10T03:05:48.471Z,94.45
2023-01-10T03:06:48.488Z,94.41
2023-01-10T03:07:48.476Z,94.35
2023-01-10T03:08:49.079Z,93.99
2023-01-10T03:09:48.453Z,94.10
2023-01-10T03:10:48.442Z,93.99
2023-01-10T03:11:48.428Z,93.62
2023-01-10T03:12:48.452Z,93.89
2023-01-10T03:13:48.421Z,94.45
2023-01-10T03:14:48.402Z,93.31
2023-01-10T03:15:48.410Z,93.73
2023-01-10T03:16:48.395Z,94.56
2023-01-10T03:17:48.380Z,94.24
2023-01-10T03:18:48.373Z,93.93
2023-01-10T03:19:48.359Z,94.56
2023-01-10T03:20:48.357Z,94.24
2023-01-10T03:21:48.344Z,93.93
2023-01-10T03:22:48.362Z,94.08
2023-01-10T03:23:48.351Z,94.18
2023-01-10T03:24:48.339Z,94.49
2023-01-10T03:25:49.321Z,94.45
2023-01-10T03:26:48.307Z,94.39
2023-01-10T03:27:48.383Z,94.08
2023-01-10T03:28:48.294Z,93.87
2023-01-10T03:29:48.295Z,94.49
2023-01-10T03:30:48.284Z,94.49
2023-01-10T03:31:48.283Z,94.60
2023-01-10T03:32:48.282Z,94.49
2023-01-10T03:33:48.251Z,93.83
2023-01-10T03:34:48.272Z,93.83
2023-01-10T03:35:48.244Z,94.45
2023-01-10T03:36:48.230Z,93.21
2023-01-10T03:37:48.227Z,93.83
2023-01-10T03:38:48.215Z,93.93
2023-01-10T03:39:48.208Z,93.37
2023-01-10T03:40:48.207Z,93.37
2023-01-10T03:41:48.190Z,93.31
2023-01-10T03:42:48.189Z,93.16
2023-01-10T03:43:48.176Z,93.48
2023-01-10T03:44:48.158Z,93.16
2023-01-10T03:45:49.166Z,92.96
2023-01-10T03:46:48.190Z,92.85
2023-01-10T03:47:48.152Z,92.91
2023-01-10T03:48:48.215Z,93.02
2023-01-10T03:49:48.145Z,92.91
2023-01-10T03:50:48.121Z,92.91
2023-01-10T03:51:48.108Z,92.91
2023-01-10T03:52:48.102Z,92.91
2023-01-10T03:53:48.100Z,93.12
2023-01-10T03:54:48.097Z,92.91
2023-01-10T03:55:48.084Z,92.91
2023-01-10T03:56:48.080Z,92.87
2023-01-10T03:57:48.059Z,93.02
2023-01-10T03:58:48.057Z,93.02
2023-01-10T03:59:48.042Z,93.23
2023-01-10T04:00:48.071Z,93.43
2023-01-10T04:01:48.198Z,93.23
2023-01-10T04:02:48.029Z,93.12
2023-01-10T04:03:48.070Z,93.27
2023-01-10T04:04:48.651Z,93.33
2023-01-10T04:05:47.998Z,93.48
2023-01-10T04:06:47.992Z,93.33
2023-01-10T04:07:47.992Z,93.27
2023-01-10T04:08:47.989Z,93.33
2023-01-10T04:09:47.961Z,93.99
2023-01-10T04:10:47.955Z,93.54
2023-01-10T04:11:47.945Z,93.85
2023-01-10T04:12:47.947Z,93.99
2023-01-10T04:13:47.939Z,93.43
2023-01-10T04:14:47.955Z,94.20
2023-01-10T04:15:47.915Z,94.57
2023-01-10T04:16:47.911Z,94.31
2023-01-10T04:17:47.923Z,93.37
2023-01-10T04:18:47.891Z,93.33
2023-01-10T04:19:47.885Z,93.33
2023-01-10T04:20:47.883Z,94.37
2023-01-10T04:21:47.873Z,93.43
2023-01-10T04:22:47.868Z,93.18
2023-01-10T04:23:47.861Z,93.18
2023-01-10T04:24:47.850Z,92.57
2023-01-10T04:25:47.851Z,92.71
2023-01-10T04:26:47.853Z,91.42
2023-01-10T04:27:47.843Z,92.05
2023-01-10T04:28:47.816Z,92.05
2023-01-10T04:29:47.799Z,91.84
2023-01-10T04:30:47.796Z,91.84
2023-01-10T04:31:47.865Z,91.42
2023-01-10T04:32:47.779Z,91.32
2023-01-10T04:33:47.771Z,91.22
2023-01-10T04:34:47.760Z,90.70
2023-01-10T04:35:47.763Z,90.80
2023-01-10T04:36:49.920Z,90.91
2023-01-10T04:37:47.736Z,91.53
2023-01-10T04:38:48.654Z,91.38
2023-01-10T04:39:47.725Z,91.53
2023-01-10T04:40:47.718Z,91.32
2023-01-10T04:41:47.727Z,91.42
2023-01-10T04:42:47.740Z,91.57
2023-01-10T04:43:47.697Z,91.47
2023-01-10T04:44:47.695Z,91.67
2023-01-10T04:45:47.703Z,92.09
2023-01-10T04:46:48.582Z,92.30
2023-01-10T04:47:47.661Z,91.88
2023-01-10T04:48:47.655Z,92.61
2023-01-10T04:49:47.640Z,92.71
2023-01-10T04:50:47.635Z,92.81
2023-01-10T04:51:47.629Z,92.81
2023-01-10T04:52:47.625Z,92.76
2023-01-10T04:53:47.615Z,92.61
2023-01-10T04:54:47.609Z,92.34
2023-01-10T04:55:47.604Z,92.38
2023-01-10T04:56:47.587Z,92.76
2023-01-10T04:57:47.585Z,93.16
2023-01-10T04:58:47.572Z,93.48
2023-01-10T04:59:47.561Z,93.37
2023-01-10T05:00:47.551Z,92.96
2023-01-10T05:01:47.674Z,93.27
2023-01-10T05:02:47.625Z,93.41
2023-01-10T05:03:47.529Z,93.10
2023-01-10T05:04:47.511Z,93.89
2023-01-10T05:05:47.516Z,93.27
2023-01-10T05:06:47.498Z,93.89
2023-01-10T05:07:47.521Z,94.10
2023-01-10T05:08:47.490Z,94.10
2023-01-10T05:09:47.481Z,93.68
2023-01-10T05:10:47.477Z,93.68
2023-01-10T05:11:47.465Z,93.37
2023-01-10T05:12:47.469Z,93.16
2023-01-10T05:13:48.207Z,93.27
2023-01-10T05:14:48.436Z,93.52
2023-01-10T05:15:47.434Z,93.37
2023-01-10T05:16:47.457Z,93.37
2023-01-10T05:17:48.167Z,93.21
2023-01-10T05:18:47.410Z,94.62
2023-01-10T05:19:47.408Z,93.27
2023-01-10T05:20:47.397Z,92.34
2023-01-10T05:21:47.385Z,92.65
2023-01-10T05:22:47.376Z,92.76
2023-01-10T05:23:47.362Z,92.76
2023-01-10T05:24:47.369Z,93.27
2023-01-10T05:25:47.340Z,93.16
2023-01-10T05:26:47.338Z,93.16
2023-01-10T05:27:47.327Z,93.27
2023-01-10T05:28:47.325Z,93.27
2023-01-10T05:29:47.318Z,93.06
2023-01-10T05:30:47.363Z,93.37
2023-01-10T05:31:47.323Z,93.27
2023-01-10T05:32:47.294Z,93.79
2023-01-10T05:33:47.277Z,93.58
2023-01-10T05:34:47.270Z,93.83
2023-01-10T05:35:47.261Z,93.37
2023-01-10T05:36:47.259Z,93.68
2023-01-10T05:37:47.253Z,93.21
2023-01-10T05:38:47.255Z,93.41
2023-01-10T05:39:47.219Z,93.41
2023-01-10T05:40:48.226Z,93.77
2023-01-10T05:41:47.217Z,93.56
2023-01-10T05:42:47.213Z,93.46
2023-01-10T05:43:47.205Z,94.49
2023-01-10T05:44:47.212Z,93.25
2023-01-10T05:45:47.196Z,93.35
2023-01-10T05:46:47.173Z,94.60
2023-01-10T05:47:48.164Z,94.60
2023-01-10T05:48:47.173Z,94.18
2023-01-10T05:49:47.162Z,93.87
2023-01-10T05:50:47.145Z,93.87
2023-01-10T05:51:47.141Z,94.29
2023-01-10T05:52:47.126Z,94.70
2023-01-10T05:53:48.065Z,94.49
2023-01-10T05:54:48.164Z,94.49
2023-01-10T05:55:47.662Z,94.70
2023-01-10T05:56:47.101Z,94.08
2023-01-10T05:57:47.093Z,94.18
2023-01-10T05:58:47.385Z,94.49
2023-01-10T05:59:48.085Z,94.39
2023-01-10T06:00:47.066Z,94.91
2023-01-10T06:01:47.075Z,94.39
2023-01-10T06:02:47.158Z,93.87
2023-01-10T06:03:47.043Z,94.29
2023-01-10T06:04:47.067Z,94.18
2023-01-10T06:05:48.806Z,94.29
2023-01-10T06:06:48.020Z,94.18
2023-01-10T06:07:47.030Z,94.29
2023-01-10T06:08:47.004Z,94.08
2023-01-10T06:09:47.000Z,94.29
2023-01-10T06:10:47.004Z,93.04
2023-01-10T06:11:46.981Z,94.08
2023-01-10T06:12:46.980Z,94.18
2023-01-10T06:13:47.672Z,94.49
2023-01-10T06:14:46.964Z,93.46
2023-01-10T06:15:47.712Z,93.91
2023-01-10T06:16:46.944Z,94.33
2023-01-10T06:17:46.932Z,93.77
2023-01-10T06:18:46.921Z,93.71
2023-01-10T06:19:46.913Z,94.12
2023-01-10T06:20:46.907Z,94.85
2023-01-10T06:21:46.903Z,94.33
2023-01-10T06:22:46.896Z,94.43
2023-01-10T06:23:46.879Z,94.68
2023-01-10T06:24:46.897Z,94.79
2023-01-10T06:25:46.887Z,94.74
2023-01-10T06:26:46.867Z,95.20
2023-01-10T06:27:46.836Z,95.56
2023-01-10T06:28:47.845Z,95.56
2023-01-10T06:29:46.832Z,95.51
2023-01-10T06:30:46.877Z,95.62
2023-01-10T06:31:48.687Z,95.56
2023-01-10T06:32:46.830Z,95.46
2023-01-10T06:33:47.675Z,95.98
2023-01-10T06:34:46.821Z,95.46
2023-01-10T06:35:46.825Z,95.56
2023-01-10T06:36:46.778Z,95.71
2023-01-10T06:37:46.777Z,95.71
2023-01-10T06:38:47.601Z,95.40
2023-01-10T06:39:46.753Z,96.23
2023-01-10T06:40:46.750Z,96.64
2023-01-10T06:41:46.736Z,97.27
2023-01-10T06:42:46.741Z,96.54
2023-01-10T06:43:46.782Z,97.47
2023-01-10T06:44:46.718Z,96.64
2023-01-10T06:45:46.791Z,97.47
2023-01-10T06:46:46.702Z,96.75
2023-01-10T06:47:46.699Z,96.64
2023-01-10T06:48:46.686Z,96.54
2023-01-10T06:49:46.676Z,96.54
2023-01-10T06:50:46.684Z,96.75
2023-01-10T06:51:46.667Z,96.44
2023-01-10T06:52:48.601Z,96.48
2023-01-10T06:53:46.654Z,97.10
2023-01-10T06:54:46.644Z,96.48
2023-01-10T06:55:46.644Z,96.48
2023-01-10T06:56:46.627Z,96.48
2023-01-10T06:57:46.613Z,96.89
2023-01-10T06:58:49.599Z,97.52
2023-01-10T06:59:46.622Z,97.20
2023-01-10T07:00:46.677Z,97.41
2023-01-10T07:01:46.777Z,97.41
2023-01-10T07:02:46.573Z,97.67
2023-01-10T07:03:47.224Z,97.14
2023-01-10T07:04:46.560Z,97.41
2023-01-10T07:05:46.566Z,97.04
2023-01-10T07:06:46.545Z,97.25
2023-01-10T07:07:46.530Z,97.77
2023-01-10T07:08:46.520Z,98.03
2023-01-10T07:09:46.513Z,98.03
2023-01-10T07:10:47.123Z,98.14
2023-01-10T07:11:46.517Z,98.19
2023-01-10T07:12:46.488Z,98.19
2023-01-10T07:13:46.484Z,97.62
2023-01-10T07:14:46.472Z,97.98
2023-01-10T07:15:47.114Z,97.77
2023-01-10T07:16:46.460Z,97.88
2023-01-10T07:17:46.469Z,98.24
2023-01-10T07:18:46.454Z,98.08
2023-01-10T07:19:46.493Z,97.88
2023-01-10T07:20:46.431Z,98.50
2023-01-10T07:21:46.427Z,97.88
2023-01-10T07:22:46.421Z,97.98
2023-01-10T07:23:46.414Z,98.03
2023-01-10T07:24:46.441Z,98.55
2023-01-10T07:25:46.397Z,98.55
2023-01-10T07:26:46.386Z,98.45
2023-01-10T07:27:47.104Z,98.71
2023-01-10T07:28:46.385Z,98.76
2023-01-10T07:29:46.403Z,98.86
2023-01-10T07:30:46.353Z,98.72
2023-01-10T07:31:46.358Z,98.86
2023-01-10T07:32:46.351Z,98.86
2023-01-10T07:33:46.343Z,98.55
2023-01-10T07:34:46.330Z,98.41
2023-01-10T07:35:46.312Z,98.41
2023-01-10T07:36:46.302Z,98.30
2023-01-10T07:37:46.295Z,97.89
2023-01-10T07:38:46.297Z,97.47
2023-01-10T07:39:46.283Z,97.89
2023-01-10T07:40:46.284Z,97.47
2023-01-10T07:41:46.276Z,97.16
2023-01-10T07:42:46.288Z,97.02
2023-01-10T07:43:46.243Z,97.47
2023-01-10T07:44:48.028Z,97.64
2023-01-10T07:45:46.247Z,96.81
2023-01-10T07:46:46.230Z,96.08
2023-01-10T07:47:46.241Z,96.08
2023-01-10T07:48:46.227Z,96.39
2023-01-10T07:49:46.211Z,95.61
2023-01-10T07:50:46.212Z,95.92
2023-01-10T07:51:46.205Z,95.61
2023-01-10T07:52:46.193Z,95.40
2023-01-10T07:53:46.186Z,96.23
2023-01-10T07:54:46.169Z,96.33
2023-01-10T07:55:46.173Z,96.44
2023-01-10T07:56:46.152Z,95.40
2023-01-10T07:57:46.137Z,95.71
2023-01-10T07:58:46.131Z,95.50
2023-01-10T07:59:46.147Z,95.50
2023-01-10T08:00:46.125Z,95.40
2023-01-10T08:01:46.113Z,95.40
2023-01-10T08:02:46.190Z,95.81
2023-01-10T08:03:46.115Z,95.86
2023-01-10T08:04:46.134Z,95.96
2023-01-10T08:05:46.091Z,96.27
2023-01-10T08:06:46.065Z,97.10
2023-01-10T08:07:46.057Z,97.58
2023-01-10T08:08:46.079Z,97.47
2023-01-10T08:09:46.061Z,97.58
2023-01-10T08:10:46.059Z,97.37
2023-01-10T08:11:46.033Z,96.23
2023-01-10T08:12:46.027Z,96.39
2023-01-10T08:13:46.014Z,95.87
2023-01-10T08:14:46.633Z,95.72
2023-01-10T08:15:46.058Z,95.83
2023-01-10T08:16:45.997Z,95.78
2023-01-10T08:17:46.001Z,94.43
2023-01-10T08:18:45.980Z,94.54
2023-01-10T08:19:46.615Z,93.77
2023-01-10T08:20:45.976Z,94.08
2023-01-10T08:21:46.704Z,93.93
2023-01-10T08:22:45.945Z,93.62
2023-01-10T08:23:45.954Z,93.31
2023-01-10T08:24:45.938Z,92.85
2023-01-10T08:25:45.925Z,92.34
2023-01-10T08:26:46.628Z,92.18
2023-01-10T08:27:45.910Z,91.82
2023-01-10T08:28:45.893Z,92.03
2023-01-10T08:29:45.911Z,91.93
2023-01-10T08:30:45.885Z,91.82
2023-01-10T08:31:45.878Z,91.82
2023-01-10T08:32:45.868Z,91.72
2023-01-10T08:33:45.871Z,91.97
2023-01-10T08:34:45.852Z,91.55
2023-01-10T08:35:45.859Z,91.76
2023-01-10T08:36:46.623Z,92.38
2023-01-10T08:37:46.648Z,92.34
2023-01-10T08:38:45.848Z,92.28
2023-01-10T08:39:45.815Z,91.86
2023-01-10T08:40:45.791Z,92.13
2023-01-10T08:41:45.785Z,92.24
2023-01-10T08:42:45.785Z,91.82
2023-01-10T08:43:45.790Z,91.82
2023-01-10T08:44:45.752Z,90.99
2023-01-10T08:45:45.749Z,90.68
2023-01-10T08:46:45.878Z,90.89
2023-01-10T08:47:45.731Z,90.74
2023-01-10T08:48:45.755Z,91.09
2023-01-10T08:49:45.754Z,90.95
2023-01-10T08:50:45.713Z,90.99
2023-01-10T08:51:45.704Z,91.51
2023-01-10T08:52:45.788Z,91.61
2023-01-10T08:53:45.711Z,91.72
2023-01-10T08:54:45.686Z,92.44
2023-01-10T08:55:45.673Z,91.93
2023-01-10T08:56:45.673Z,91.61
2023-01-10T08:57:45.693Z,92.76
2023-01-10T08:58:45.659Z,92.81
2023-01-10T08:59:45.639Z,92.55
2023-01-10T09:00:45.636Z,92.19
2023-01-10T09:01:45.760Z,92.40
2023-01-10T09:02:46.220Z,91.67
2023-01-10T09:03:45.605Z,91.36
2023-01-10T09:04:45.620Z,92.09
2023-01-10T09:05:45.588Z,91.88
2023-01-10T09:06:46.606Z,91.22
2023-01-10T09:07:45.586Z,90.91
2023-01-10T09:08:45.568Z,90.87
2023-01-10T09:09:45.554Z,90.56
2023-01-10T09:10:45.562Z,90.14
2023-01-10T09:11:45.563Z,89.59
2023-01-10T09:12:45.536Z,89.23
2023-01-10T09:13:45.524Z,88.92
2023-01-10T09:14:45.512Z,88.68
2023-01-10T09:15:45.559Z,87.74
2023-01-10T09:16:45.570Z,87.74
2023-01-10T09:17:45.494Z,87.40
2023-01-10T09:18:45.482Z,86.78
2023-01-10T09:19:45.473Z,86.12
2023-01-10T09:20:45.471Z,86.22
2023-01-10T09:21:45.458Z,85.87
2023-01-10T09:22:45.442Z,85.67
2023-01-10T09:23:45.448Z,85.05
2023-01-10T09:24:46.144Z,84.94
2023-01-10T09:25:45.435Z,84.80
2023-01-10T09:26:45.418Z,84.64
2023-01-10T09:27:45.415Z,84.64
2023-01-10T09:28:48.032Z,84.70
2023-01-10T09:29:45.420Z,84.53
2023-01-10T09:30:45.416Z,84.08
2023-01-10T09:31:46.194Z,83.87
2023-01-10T09:32:45.367Z,84.29
2023-01-10T09:33:47.415Z,83.81
2023-01-10T09:34:46.364Z,83.67
2023-01-10T09:35:45.368Z,83.67
2023-01-10T09:36:45.342Z,83.47
2023-01-10T09:37:45.328Z,83.36
2023-01-10T09:38:45.346Z,83.91
2023-01-10T09:39:45.315Z,83.29
2023-01-10T09:40:45.302Z,83.56
2023-01-10T09:41:45.293Z,83.71
2023-01-10T09:42:45.293Z,83.61
2023-01-10T09:43:45.295Z,83.77
2023-01-10T09:44:45.265Z,83.71
2023-01-10T09:45:45.282Z,83.81
2023-01-10T09:46:45.363Z,83.91
2023-01-10T09:47:45.247Z,84.12
2023-01-10T09:48:45.248Z,83.81
2023-01-10T09:49:47.149Z,84.01
2023-01-10T09:50:45.242Z,83.47
2023-01-10T09:51:45.216Z,83.67
2023-01-10T09:52:45.197Z,82.98
2023-01-10T09:53:45.186Z,83.47
2023-01-10T09:54:46.200Z,82.64
2023-01-10T09:55:45.712Z,82.64
2023-01-10T09:56:45.172Z,82.54
2023-01-10T09:57:45.159Z,82.64
2023-01-10T09:58:45.154Z,82.64
2023-01-10T09:59:45.149Z,82.33
2023-01-10T10:00:45.153Z,82.43
2023-01-10T10:01:45.134Z,82.19
2023-01-10T10:02:45.127Z,81.98
2023-01-10T10:03:45.250Z,81.16
2023-01-10T10:04:45.117Z,80.95
2023-01-10T10:05:45.096Z,81.47
2023-01-10T10:06:45.087Z,81.16
2023-01-10T10:07:45.078Z,80.44
2023-01-10T10:08:45.070Z,80.33
2023-01-10T10:09:45.093Z,80.54
2023-01-10T10:10:45.068Z,80.95
2023-01-10T10:11:45.050Z,80.02
2023-01-10T10:12:45.087Z,79.93
2023-01-10T10:13:45.037Z,80.75
2023-01-10T10:14:45.026Z,79.88
2023-01-10T10:15:45.019Z,80.33
2023-01-10T10:16:45.021Z,80.33
2023-01-10T10:17:45.006Z,80.40
2023-01-10T10:18:46.598Z,80.30
2023-01-10T10:19:44.992Z,79.79
2023-01-10T10:20:44.984Z,79.23
2023-01-10T10:21:44.971Z,78.61
2023-01-10T10:22:44.974Z,78.61
2023-01-10T10:23:45.718Z,78.72
2023-01-10T10:24:44.948Z,77.34
2023-01-10T10:25:45.953Z,77.65
2023-01-10T10:26:45.332Z,77.38
2023-01-10T10:27:45.069Z,77.86
2023-01-10T10:28:53.807Z,77.07
2023-01-10T10:29:47.735Z,77.79
2023-01-10T10:30:45.899Z,77.38
2023-01-10T10:31:45.031Z,77.17
2023-01-10T10:32:44.891Z,77.17
2023-01-10T10:33:44.883Z,77.31
2023-01-10T10:34:44.871Z,77.07
2023-01-10T10:35:44.863Z,77.28
2023-01-10T10:36:45.725Z,77.17
2023-01-10T10:37:45.638Z,77.58
2023-01-10T10:38:44.836Z,76.97
2023-01-10T10:39:44.832Z,77.07
2023-01-10T10:40:44.854Z,77.38
2023-01-10T10:41:44.842Z,76.97
2023-01-10T10:42:44.801Z,77.48
2023-01-10T10:43:44.794Z,77.07
2023-01-10T10:44:44.791Z,76.97
2023-01-10T10:45:44.835Z,77.48
2023-01-10T10:46:44.779Z,77.28
2023-01-10T10:48:55.554Z,77.28
2023-01-10T10:49:56.429Z,76.93
2023-01-10T10:50:56.426Z,76.86
2023-01-10T10:51:55.525Z,77.55
2023-01-10T10:52:56.502Z,76.83
2023-01-10T10:53:55.512Z,76.73
2023-01-10T10:54:55.499Z,76.93
2023-01-10T10:55:55.515Z,77.65
2023-01-10T10:56:55.457Z,76.62
2023-01-10T10:58:00.605Z,76.52
2023-01-10T10:58:56.465Z,77.34
2023-01-10T10:59:55.457Z,76.42
2023-01-10T11:00:55.527Z,77.14
2023-01-10T11:01:57.435Z,77.65
2023-01-10T11:02:55.411Z,77.14
2023-01-10T11:03:55.408Z,77.03
2023-01-10T11:04:55.468Z,77.14
2023-01-10T11:05:55.411Z,77.34
2023-01-10T11:06:55.384Z,76.52
2023-01-10T11:07:56.474Z,76.01
2023-01-10T11:08:56.473Z,77.03
2023-01-10T11:09:56.457Z,76.93
2023-01-10T11:10:56.973Z,76.73
2023-01-10T11:11:57.400Z,76.01
2023-01-10T11:12:56.429Z,76.31
2023-01-10T11:13:56.452Z,76.66
2023-01-10T11:14:57.967Z,76.66
2023-01-10T11:15:56.465Z,77.38
2023-01-10T11:16:56.396Z,77.38
2023-01-10T11:17:56.384Z,77.34
2023-01-10T11:18:56.380Z,76.97
2023-01-10T11:19:56.407Z,77.38
2023-01-10T11:20:58.040Z,76.35
2023-01-10T11:21:56.381Z,77.07
2023-01-10T11:22:56.370Z,76.97
2023-01-10T11:23:57.983Z,77.07
2023-01-10T11:24:56.394Z,76.86
2023-01-10T11:25:56.985Z,76.56
2023-01-10T11:26:58.005Z,77.48
2023-01-10T11:28:29.420Z,77.07
2023-01-10T11:28:56.299Z,77.24
2023-01-10T11:29:56.283Z,76.62
2023-01-10T11:30:56.282Z,76.73
2023-01-10T11:31:56.390Z,75.80
2023-01-10T11:32:56.264Z,76.04
2023-01-10T11:33:56.275Z,76.66
2023-01-10T11:34:57.270Z,76.76
2023-01-10T11:35:56.262Z,75.94
2023-01-10T11:36:56.265Z,76.66
2023-01-10T11:37:57.910Z,76.76
2023-01-10T11:38:56.215Z,76.79
2023-01-10T11:39:56.221Z,77.07
2023-01-10T11:40:56.188Z,76.76
2023-01-10T11:41:56.188Z,77.38
2023-01-10T11:42:58.302Z,76.86
2023-01-10T11:43:57.206Z,76.76
2023-01-10T11:44:56.160Z,77.07
2023-01-10T11:45:56.202Z,76.66
2023-01-10T11:46:57.995Z,76.86
2023-01-10T11:47:56.940Z,77.38
2023-01-10T11:49:05.402Z,75.84
2023-01-10T11:49:59.930Z,76.86
2023-01-10T11:50:56.119Z,77.38
2023-01-10T11:51:56.135Z,76.97
2023-01-10T11:52:56.152Z,76.86
2023-01-10T11:53:56.147Z,77.17
2023-01-10T11:54:58.291Z,77.07
2023-01-10T11:55:57.108Z,77.17
2023-01-10T11:56:56.112Z,76.76
2023-01-10T11:57:57.012Z,76.76
2023-01-10T11:58:57.057Z,77.24
2023-01-10T11:59:56.051Z,77.17
2023-01-10T12:00:58.816Z,75.70
2023-01-10T12:04:00.989Z,76.31
2023-01-10T12:04:02.444Z,76.93
2023-01-10T12:05:02.497Z,77.03
2023-01-10T12:06:06.927Z,76.83
2023-01-10T12:07:03.047Z,76.42
2023-01-10T12:08:04.046Z,76.11
2023-01-10T12:09:02.423Z,75.90
2023-01-10T12:10:03.015Z,75.70
2023-01-10T12:11:02.415Z,75.76
2023-01-10T12:12:02.381Z,74.84
2023-01-10T12:13:02.366Z,74.22
2023-01-10T12:14:02.373Z,74.02
2023-01-10T12:15:03.443Z,74.67
2023-01-10T12:16:02.346Z,74.57
2023-01-10T12:17:03.064Z,74.74
2023-01-10T12:18:03.317Z,75.15
2023-01-10T12:19:02.379Z,75.15
2023-01-10T12:20:02.944Z,74.91
2023-01-10T12:21:02.303Z,74.91
2023-01-10T12:22:02.291Z,73.71
2023-01-10T12:23:02.425Z,73.98
2023-01-10T12:24:02.941Z,73.71
2023-01-10T12:25:02.289Z,74.29
2023-01-10T12:26:11.807Z,73.57
2023-01-10T12:27:05.001Z,73.81
2023-01-10T12:28:02.268Z,74.12
2023-01-10T12:29:02.933Z,73.57
2023-01-10T12:30:02.240Z,73.57
2023-01-10T12:31:02.238Z,73.57
2023-01-10T12:32:02.208Z,73.16
2023-01-10T12:33:02.208Z,73.47
2023-01-10T12:34:02.204Z,73.61
2023-01-10T12:35:02.210Z,73.71
2023-01-10T12:36:02.195Z,74.67
2023-01-10T12:37:02.167Z,74.53
2023-01-10T12:38:02.186Z,74.53
2023-01-10T12:39:02.151Z,74.43
2023-01-10T12:41:08.441Z,74.33
2023-01-10T12:42:08.412Z,74.22
2023-01-10T12:43:08.428Z,74.43
2023-01-10T12:44:08.400Z,74.98
2023-01-10T12:45:08.390Z,74.77
2023-01-10T12:46:26.343Z,74.77
2023-01-10T12:47:13.302Z,75.63
2023-01-10T12:48:11.277Z,75.90
2023-01-10T12:49:09.456Z,75.70
2023-01-10T12:50:09.519Z,75.73
2023-01-10T12:51:09.441Z,75.80
2023-01-10T12:52:09.426Z,75.70
2023-01-10T12:53:09.442Z,75.29
2023-01-10T12:54:09.415Z,75.18
2023-01-10T12:55:09.413Z,75.70
2023-01-10T12:56:10.289Z,76.01
2023-01-10T12:57:09.405Z,75.08